sensor_id;sensor_type;location;lat;lon;timestamp;P1;durP1;ratioP1;P2;durP2;ratioP2
76210;SDS011;65003;49.518;11.280;2023-04-21T00:00:23;20.37;;;15.33;;
76210;SDS011;65003;49.518;11.280;2023-04-21T00:02:50;20.60;;;14.63;;
76210;SDS011;65003;49.518;11.280;2023-04-21T00:05:17;21.57;;;15.30;;
76210;SDS011;65003;49.518;11.280;2023-04-21T00:07:43;21.37;;;14.77;;
76210;SDS011;65003;49.518;11.280;2023-04-21T00:10:10;20.63;;;13.50;;
76210;SDS011;65003;49.518;11.280;2023-04-21T00:12:37;19.13;;;14.03;;
76210;SDS011;65003;49.518;11.280;2023-04-21T00:15:04;18.83;;;13.60;;
76210;SDS011;65003;49.518;11.280;2023-04-21T00:17:31;19.17;;;14.20;;
76210;SDS011;65003;49.518;11.280;2023-04-21T00:19:58;19.90;;;14.33;;
76210;SDS011;65003;49.518;11.280;2023-04-21T00:22:25;19.43;;;14.23;;
76210;SDS011;65003;49.518;11.280;2023-04-21T00:24:51;17.43;;;13.60;;
76210;SDS011;65003;49.518;11.280;2023-04-21T00:27:18;17.47;;;13.50;;
76210;SDS011;65003;49.518;11.280;2023-04-21T00:29:44;17.03;;;13.03;;
76210;SDS011;65003;49.518;11.280;2023-04-21T00:32:11;20.90;;;15.53;;
76210;SDS011;65003;49.518;11.280;2023-04-21T00:34:38;20.50;;;14.00;;
76210;SDS011;65003;49.518;11.280;2023-04-21T00:37:04;21.70;;;13.97;;
76210;SDS011;65003;49.518;11.280;2023-04-21T00:39:31;21.07;;;14.07;;
76210;SDS011;65003;49.518;11.280;2023-04-21T00:41:57;19.93;;;14.80;;
76210;SDS011;65003;49.518;11.280;2023-04-21T00:44:24;21.27;;;15.03;;
76210;SDS011;65003;49.518;11.280;2023-04-21T00:46:51;21.97;;;14.23;;
76210;SDS011;65003;49.518;11.280;2023-04-21T00:49:17;21.50;;;14.17;;
76210;SDS011;65003;49.518;11.280;2023-04-21T00:51:44;17.50;;;13.37;;
76210;SDS011;65003;49.518;11.280;2023-04-21T00:54:11;21.13;;;14.23;;
76210;SDS011;65003;49.518;11.280;2023-04-21T00:56:37;18.17;;;13.60;;
76210;SDS011;65003;49.518;11.280;2023-04-21T00:59:04;21.07;;;15.00;;
76210;SDS011;65003;49.518;11.280;2023-04-21T01:01:31;19.67;;;14.57;;
76210;SDS011;65003;49.518;11.280;2023-04-21T01:03:57;22.03;;;15.60;;
76210;SDS011;65003;49.518;11.280;2023-04-21T01:06:24;20.00;;;14.47;;
76210;SDS011;65003;49.518;11.280;2023-04-21T01:08:51;20.77;;;15.83;;
76210;SDS011;65003;49.518;11.280;2023-04-21T01:11:17;18.57;;;14.00;;
76210;SDS011;65003;49.518;11.280;2023-04-21T01:13:43;20.77;;;14.90;;
76210;SDS011;65003;49.518;11.280;2023-04-21T01:16:14;19.73;;;14.70;;
76210;SDS011;65003;49.518;11.280;2023-04-21T01:18:36;21.43;;;16.03;;
76210;SDS011;65003;49.518;11.280;2023-04-21T01:21:04;21.67;;;15.63;;
76210;SDS011;65003;49.518;11.280;2023-04-21T01:23:30;19.40;;;15.33;;
76210;SDS011;65003;49.518;11.280;2023-04-21T01:25:56;20.73;;;15.53;;
76210;SDS011;65003;49.518;11.280;2023-04-21T01:28:23;19.37;;;14.57;;
76210;SDS011;65003;49.518;11.280;2023-04-21T01:30:50;20.67;;;15.23;;
76210;SDS011;65003;49.518;11.280;2023-04-21T01:33:16;19.73;;;15.00;;
76210;SDS011;65003;49.518;11.280;2023-04-21T01:35:43;18.87;;;13.87;;
76210;SDS011;65003;49.518;11.280;2023-04-21T01:38:09;21.17;;;14.90;;
76210;SDS011;65003;49.518;11.280;2023-04-21T01:40:37;22.37;;;14.70;;
76210;SDS011;65003;49.518;11.280;2023-04-21T01:43:02;20.93;;;14.83;;
76210;SDS011;65003;49.518;11.280;2023-04-21T01:45:30;20.53;;;14.83;;
76210;SDS011;65003;49.518;11.280;2023-04-21T01:47:56;20.80;;;14.77;;
76210;SDS011;65003;49.518;11.280;2023-04-21T01:50:23;21.57;;;15.18;;
76210;SDS011;65003;49.518;11.280;2023-04-21T01:52:49;26.20;;;16.53;;
76210;SDS011;65003;49.518;11.280;2023-04-21T01:55:16;23.53;;;17.47;;
76210;SDS011;65003;49.518;11.280;2023-04-21T01:57:42;25.17;;;17.53;;
76210;SDS011;65003;49.518;11.280;2023-04-21T02:00:09;25.83;;;17.83;;
76210;SDS011;65003;49.518;11.280;2023-04-21T02:02:37;25.13;;;17.13;;
76210;SDS011;65003;49.518;11.280;2023-04-21T02:05:03;23.70;;;16.33;;
76210;SDS011;65003;49.518;11.280;2023-04-21T02:07:30;25.00;;;16.10;;
76210;SDS011;65003;49.518;11.280;2023-04-21T02:09:57;29.60;;;18.40;;
76210;SDS011;65003;49.518;11.280;2023-04-21T02:12:23;24.87;;;16.50;;
76210;SDS011;65003;49.518;11.280;2023-04-21T02:14:50;27.27;;;17.87;;
76210;SDS011;65003;49.518;11.280;2023-04-21T02:17:17;30.03;;;18.13;;
76210;SDS011;65003;49.518;11.280;2023-04-21T02:19:43;28.20;;;19.50;;
76210;SDS011;65003;49.518;11.280;2023-04-21T02:22:10;24.20;;;17.47;;
76210;SDS011;65003;49.518;11.280;2023-04-21T02:24:37;24.17;;;17.00;;
76210;SDS011;65003;49.518;11.280;2023-04-21T02:27:03;26.87;;;16.60;;
76210;SDS011;65003;49.518;11.280;2023-04-21T02:29:30;24.57;;;16.37;;
76210;SDS011;65003;49.518;11.280;2023-04-21T02:31:56;22.40;;;17.80;;
76210;SDS011;65003;49.518;11.280;2023-04-21T02:34:23;25.83;;;17.07;;
76210;SDS011;65003;49.518;11.280;2023-04-21T02:36:50;23.77;;;17.10;;
76210;SDS011;65003;49.518;11.280;2023-04-21T02:39:16;25.53;;;17.53;;
76210;SDS011;65003;49.518;11.280;2023-04-21T02:41:43;23.07;;;15.87;;
76210;SDS011;65003;49.518;11.280;2023-04-21T02:44:09;23.20;;;16.57;;
76210;SDS011;65003;49.518;11.280;2023-04-21T02:46:38;24.00;;;17.03;;
76210;SDS011;65003;49.518;11.280;2023-04-21T02:49:03;26.90;;;16.67;;
76210;SDS011;65003;49.518;11.280;2023-04-21T02:51:29;23.20;;;16.40;;
76210;SDS011;65003;49.518;11.280;2023-04-21T02:53:56;23.30;;;16.20;;
76210;SDS011;65003;49.518;11.280;2023-04-21T02:56:23;22.23;;;15.83;;
76210;SDS011;65003;49.518;11.280;2023-04-21T02:58:49;27.00;;;17.77;;
76210;SDS011;65003;49.518;11.280;2023-04-21T03:01:16;25.00;;;16.70;;
76210;SDS011;65003;49.518;11.280;2023-04-21T03:03:43;26.40;;;16.40;;
76210;SDS011;65003;49.518;11.280;2023-04-21T03:06:09;23.57;;;16.00;;
76210;SDS011;65003;49.518;11.280;2023-04-21T03:08:36;29.00;;;17.37;;
76210;SDS011;65003;49.518;11.280;2023-04-21T03:11:02;24.10;;;16.20;;
76210;SDS011;65003;49.518;11.280;2023-04-21T03:13:29;26.17;;;16.33;;
76210;SDS011;65003;49.518;11.280;2023-04-21T03:15:56;26.93;;;16.80;;
76210;SDS011;65003;49.518;11.280;2023-04-21T03:18:22;22.03;;;15.90;;
76210;SDS011;65003;49.518;11.280;2023-04-21T03:20:49;25.47;;;17.73;;
76210;SDS011;65003;49.518;11.280;2023-04-21T03:23:16;22.70;;;16.33;;
76210;SDS011;65003;49.518;11.280;2023-04-21T03:25:42;23.10;;;16.83;;
76210;SDS011;65003;49.518;11.280;2023-04-21T03:28:09;22.93;;;15.60;;
76210;SDS011;65003;49.518;11.280;2023-04-21T03:30:35;24.00;;;15.53;;
76210;SDS011;65003;49.518;11.280;2023-04-21T03:33:02;25.07;;;16.67;;
76210;SDS011;65003;49.518;11.280;2023-04-21T03:35:29;21.40;;;14.00;;
76210;SDS011;65003;49.518;11.280;2023-04-21T03:37:55;19.60;;;15.40;;
76210;SDS011;65003;49.518;11.280;2023-04-21T03:40:22;19.43;;;14.13;;
76210;SDS011;65003;49.518;11.280;2023-04-21T03:42:48;19.23;;;13.67;;
76210;SDS011;65003;49.518;11.280;2023-04-21T03:45:15;19.93;;;14.33;;
76210;SDS011;65003;49.518;11.280;2023-04-21T03:47:41;19.67;;;14.27;;
76210;SDS011;65003;49.518;11.280;2023-04-21T03:50:08;18.30;;;13.27;;
76210;SDS011;65003;49.518;11.280;2023-04-21T03:52:35;21.30;;;13.17;;
76210;SDS011;65003;49.518;11.280;2023-04-21T03:55:01;21.90;;;13.17;;
76210;SDS011;65003;49.518;11.280;2023-04-21T03:57:28;19.67;;;13.40;;
76210;SDS011;65003;49.518;11.280;2023-04-21T03:59:55;20.87;;;13.33;;
76210;SDS011;65003;49.518;11.280;2023-04-21T04:02:21;18.53;;;12.97;;
76210;SDS011;65003;49.518;11.280;2023-04-21T04:04:48;18.03;;;13.53;;
76210;SDS011;65003;49.518;11.280;2023-04-21T04:07:14;18.07;;;13.67;;
76210;SDS011;65003;49.518;11.280;2023-04-21T04:09:41;18.83;;;13.67;;
76210;SDS011;65003;49.518;11.280;2023-04-21T04:12:08;17.17;;;12.87;;
76210;SDS011;65003;49.518;11.280;2023-04-21T04:14:34;22.00;;;14.93;;
76210;SDS011;65003;49.518;11.280;2023-04-21T04:17:01;21.40;;;14.90;;
76210;SDS011;65003;49.518;11.280;2023-04-21T04:19:29;20.53;;;14.70;;
76210;SDS011;65003;49.518;11.280;2023-04-21T04:21:57;20.53;;;13.90;;
76210;SDS011;65003;49.518;11.280;2023-04-21T04:24:23;20.87;;;13.47;;
76210;SDS011;65003;49.518;11.280;2023-04-21T04:26:50;17.97;;;13.20;;
76210;SDS011;65003;49.518;11.280;2023-04-21T04:29:16;23.30;;;14.03;;
76210;SDS011;65003;49.518;11.280;2023-04-21T04:31:43;20.00;;;14.17;;
76210;SDS011;65003;49.518;11.280;2023-04-21T04:34:09;22.50;;;14.77;;
76210;SDS011;65003;49.518;11.280;2023-04-21T04:36:36;20.03;;;14.07;;
76210;SDS011;65003;49.518;11.280;2023-04-21T04:39:03;23.33;;;15.77;;
76210;SDS011;65003;49.518;11.280;2023-04-21T04:41:29;23.50;;;15.07;;
76210;SDS011;65003;49.518;11.280;2023-04-21T04:43:56;21.73;;;15.00;;
76210;SDS011;65003;49.518;11.280;2023-04-21T04:46:22;22.47;;;14.47;;
76210;SDS011;65003;49.518;11.280;2023-04-21T04:48:49;23.37;;;15.73;;
76210;SDS011;65003;49.518;11.280;2023-04-21T04:51:16;25.40;;;15.53;;
76210;SDS011;65003;49.518;11.280;2023-04-21T04:53:42;20.13;;;14.57;;
76210;SDS011;65003;49.518;11.280;2023-04-21T04:56:09;21.90;;;14.53;;
76210;SDS011;65003;49.518;11.280;2023-04-21T04:58:35;25.83;;;16.03;;
76210;SDS011;65003;49.518;11.280;2023-04-21T05:03:36;22.00;;;15.27;;
76210;SDS011;65003;49.518;11.280;2023-04-21T05:06:02;22.07;;;15.53;;
76210;SDS011;65003;49.518;11.280;2023-04-21T05:08:29;23.90;;;15.33;;
76210;SDS011;65003;49.518;11.280;2023-04-21T05:10:56;24.03;;;16.70;;
76210;SDS011;65003;49.518;11.280;2023-04-21T05:13:23;30.03;;;21.30;;
76210;SDS011;65003;49.518;11.280;2023-04-21T05:15:55;23.47;;;16.80;;
76210;SDS011;65003;49.518;11.280;2023-04-21T05:18:16;22.50;;;16.30;;
76210;SDS011;65003;49.518;11.280;2023-04-21T05:20:44;25.27;;;15.90;;
76210;SDS011;65003;49.518;11.280;2023-04-21T05:23:10;24.57;;;15.57;;
76210;SDS011;65003;49.518;11.280;2023-04-21T05:25:37;25.93;;;15.67;;
76210;SDS011;65003;49.518;11.280;2023-04-21T05:28:04;24.53;;;15.40;;
76210;SDS011;65003;49.518;11.280;2023-04-21T05:30:31;23.47;;;15.30;;
76210;SDS011;65003;49.518;11.280;2023-04-21T05:32:57;22.97;;;16.07;;
76210;SDS011;65003;49.518;11.280;2023-04-21T05:35:24;22.60;;;14.77;;
76210;SDS011;65003;49.518;11.280;2023-04-21T05:37:50;21.30;;;14.50;;
76210;SDS011;65003;49.518;11.280;2023-04-21T05:40:17;21.30;;;15.23;;
76210;SDS011;65003;49.518;11.280;2023-04-21T05:42:44;21.27;;;13.97;;
76210;SDS011;65003;49.518;11.280;2023-04-21T05:45:10;20.20;;;13.97;;
76210;SDS011;65003;49.518;11.280;2023-04-21T05:47:37;19.13;;;13.77;;
76210;SDS011;65003;49.518;11.280;2023-04-21T05:50:04;22.57;;;13.23;;
76210;SDS011;65003;49.518;11.280;2023-04-21T05:52:31;22.27;;;13.60;;
76210;SDS011;65003;49.518;11.280;2023-04-21T05:54:57;19.67;;;12.97;;
76210;SDS011;65003;49.518;11.280;2023-04-21T05:57:24;18.30;;;13.43;;
76210;SDS011;65003;49.518;11.280;2023-04-21T05:59:51;18.70;;;12.50;;
76210;SDS011;65003;49.518;11.280;2023-04-21T06:02:18;20.20;;;12.67;;
76210;SDS011;65003;49.518;11.280;2023-04-21T06:04:44;18.67;;;13.63;;
76210;SDS011;65003;49.518;11.280;2023-04-21T06:07:11;17.73;;;12.40;;
76210;SDS011;65003;49.518;11.280;2023-04-21T06:09:38;20.67;;;12.50;;
76210;SDS011;65003;49.518;11.280;2023-04-21T06:12:05;14.63;;;11.17;;
76210;SDS011;65003;49.518;11.280;2023-04-21T06:14:32;16.20;;;12.10;;
76210;SDS011;65003;49.518;11.280;2023-04-21T06:16:58;16.40;;;12.53;;
76210;SDS011;65003;49.518;11.280;2023-04-21T06:19:25;17.93;;;11.40;;
76210;SDS011;65003;49.518;11.280;2023-04-21T06:21:51;16.20;;;12.33;;
76210;SDS011;65003;49.518;11.280;2023-04-21T06:24:18;16.40;;;12.27;;
76210;SDS011;65003;49.518;11.280;2023-04-21T06:26:45;14.10;;;11.20;;
76210;SDS011;65003;49.518;11.280;2023-04-21T06:29:11;16.27;;;11.40;;
76210;SDS011;65003;49.518;11.280;2023-04-21T06:31:38;12.83;;;10.57;;
76210;SDS011;65003;49.518;11.280;2023-04-21T06:34:05;15.00;;;11.40;;
76210;SDS011;65003;49.518;11.280;2023-04-21T06:36:31;13.27;;;11.20;;
76210;SDS011;65003;49.518;11.280;2023-04-21T06:38:58;17.30;;;12.17;;
76210;SDS011;65003;49.518;11.280;2023-04-21T06:41:25;17.80;;;11.23;;
76210;SDS011;65003;49.518;11.280;2023-04-21T06:43:51;16.50;;;12.13;;
76210;SDS011;65003;49.518;11.280;2023-04-21T06:46:18;16.77;;;12.40;;
76210;SDS011;65003;49.518;11.280;2023-04-21T06:48:44;17.53;;;11.87;;
76210;SDS011;65003;49.518;11.280;2023-04-21T06:51:11;14.73;;;11.97;;
76210;SDS011;65003;49.518;11.280;2023-04-21T06:53:38;12.93;;;11.47;;
76210;SDS011;65003;49.518;11.280;2023-04-21T06:56:05;13.53;;;10.30;;
76210;SDS011;65003;49.518;11.280;2023-04-21T06:58:32;13.53;;;10.27;;
76210;SDS011;65003;49.518;11.280;2023-04-21T07:00:59;16.63;;;11.90;;
76210;SDS011;65003;49.518;11.280;2023-04-21T07:03:26;11.10;;;9.83;;
76210;SDS011;65003;49.518;11.280;2023-04-21T07:05:53;13.90;;;10.00;;
76210;SDS011;65003;49.518;11.280;2023-04-21T07:08:19;14.10;;;10.37;;
76210;SDS011;65003;49.518;11.280;2023-04-21T07:10:46;14.77;;;10.77;;
76210;SDS011;65003;49.518;11.280;2023-04-21T07:13:12;12.83;;;10.33;;
76210;SDS011;65003;49.518;11.280;2023-04-21T07:15:39;11.23;;;9.93;;
76210;SDS011;65003;49.518;11.280;2023-04-21T07:18:06;16.07;;;10.87;;
76210;SDS011;65003;49.518;11.280;2023-04-21T07:20:32;11.20;;;9.60;;
76210;SDS011;65003;49.518;11.280;2023-04-21T07:22:59;12.17;;;9.83;;
76210;SDS011;65003;49.518;11.280;2023-04-21T07:25:26;11.13;;;9.77;;
76210;SDS011;65003;49.518;11.280;2023-04-21T07:27:52;11.47;;;10.20;;
76210;SDS011;65003;49.518;11.280;2023-04-21T07:30:19;11.50;;;9.43;;
76210;SDS011;65003;49.518;11.280;2023-04-21T07:32:45;10.87;;;8.93;;
76210;SDS011;65003;49.518;11.280;2023-04-21T07:35:12;11.07;;;9.87;;
76210;SDS011;65003;49.518;11.280;2023-04-21T07:37:39;11.43;;;9.97;;
76210;SDS011;65003;49.518;11.280;2023-04-21T07:40:06;11.57;;;9.80;;
76210;SDS011;65003;49.518;11.280;2023-04-21T07:42:33;10.80;;;9.03;;
76210;SDS011;65003;49.518;11.280;2023-04-21T07:44:59;9.47;;;8.57;;
76210;SDS011;65003;49.518;11.280;2023-04-21T07:47:26;10.37;;;8.60;;
76210;SDS011;65003;49.518;11.280;2023-04-21T07:49:53;9.20;;;8.30;;
76210;SDS011;65003;49.518;11.280;2023-04-21T07:52:19;8.40;;;7.60;;
76210;SDS011;65003;49.518;11.280;2023-04-21T07:54:46;9.33;;;8.37;;
76210;SDS011;65003;49.518;11.280;2023-04-21T07:57:13;8.30;;;7.50;;
76210;SDS011;65003;49.518;11.280;2023-04-21T07:59:39;8.93;;;8.07;;
76210;SDS011;65003;49.518;11.280;2023-04-21T08:02:06;8.80;;;8.00;;
76210;SDS011;65003;49.518;11.280;2023-04-21T08:04:32;8.00;;;7.30;;
76210;SDS011;65003;49.518;11.280;2023-04-21T08:06:59;8.03;;;7.27;;
76210;SDS011;65003;49.518;11.280;2023-04-21T08:09:26;7.67;;;6.97;;
76210;SDS011;65003;49.518;11.280;2023-04-21T08:11:52;8.83;;;8.03;;
76210;SDS011;65003;49.518;11.280;2023-04-21T08:14:19;8.27;;;7.47;;
76210;SDS011;65003;49.518;11.280;2023-04-21T08:16:45;8.00;;;7.20;;
76210;SDS011;65003;49.518;11.280;2023-04-21T08:19:12;8.30;;;7.60;;
76210;SDS011;65003;49.518;11.280;2023-04-21T08:21:39;9.05;;;8.08;;
76210;SDS011;65003;49.518;11.280;2023-04-21T08:24:05;8.90;;;8.10;;
76210;SDS011;65003;49.518;11.280;2023-04-21T08:26:32;9.00;;;8.10;;
76210;SDS011;65003;49.518;11.280;2023-04-21T08:28:59;9.20;;;8.30;;
76210;SDS011;65003;49.518;11.280;2023-04-21T08:31:25;8.20;;;7.50;;
76210;SDS011;65003;49.518;11.280;2023-04-21T08:33:52;9.30;;;8.50;;
76210;SDS011;65003;49.518;11.280;2023-04-21T08:36:19;8.43;;;7.62;;
76210;SDS011;65003;49.518;11.280;2023-04-21T08:38:45;7.83;;;7.03;;
76210;SDS011;65003;49.518;11.280;2023-04-21T08:41:12;8.08;;;7.37;;
76210;SDS011;65003;49.518;11.280;2023-04-21T08:43:38;8.00;;;7.30;;
76210;SDS011;65003;49.518;11.280;2023-04-21T08:46:06;8.30;;;7.60;;
76210;SDS011;65003;49.518;11.280;2023-04-21T08:48:36;7.80;;;7.12;;
76210;SDS011;65003;49.518;11.280;2023-04-21T08:51:02;7.45;;;6.75;;
76210;SDS011;65003;49.518;11.280;2023-04-21T08:53:28;7.33;;;6.73;;
76210;SDS011;65003;49.518;11.280;2023-04-21T08:55:55;7.20;;;6.40;;
76210;SDS011;65003;49.518;11.280;2023-04-21T08:58:21;7.83;;;7.22;;
76210;SDS011;65003;49.518;11.280;2023-04-21T09:00:48;7.28;;;6.75;;
76210;SDS011;65003;49.518;11.280;2023-04-21T09:03:20;7.60;;;6.90;;
76210;SDS011;65003;49.518;11.280;2023-04-21T09:08:23;6.58;;;5.97;;
76210;SDS011;65003;49.518;11.280;2023-04-21T09:10:50;7.20;;;6.60;;
76210;SDS011;65003;49.518;11.280;2023-04-21T09:13:18;7.03;;;6.30;;
76210;SDS011;65003;49.518;11.280;2023-04-21T09:15:45;7.50;;;6.90;;
76210;SDS011;65003;49.518;11.280;2023-04-21T09:18:14;6.47;;;5.92;;
76210;SDS011;65003;49.518;11.280;2023-04-21T09:20:40;5.63;;;5.20;;
76210;SDS011;65003;49.518;11.280;2023-04-21T09:23:06;6.28;;;5.42;;
76210;SDS011;65003;49.518;11.280;2023-04-21T09:25:33;6.20;;;5.70;;
76210;SDS011;65003;49.518;11.280;2023-04-21T09:28:00;6.15;;;5.58;;
76210;SDS011;65003;49.518;11.280;2023-04-21T09:30:26;6.90;;;6.25;;
76210;SDS011;65003;49.518;11.280;2023-04-21T09:32:56;6.67;;;5.95;;
76210;SDS011;65003;49.518;11.280;2023-04-21T09:35:21;6.22;;;5.62;;
76210;SDS011;65003;49.518;11.280;2023-04-21T09:37:48;6.25;;;5.72;;
76210;SDS011;65003;49.518;11.280;2023-04-21T09:40:16;5.78;;;5.33;;
76210;SDS011;65003;49.518;11.280;2023-04-21T09:42:41;5.47;;;5.08;;
76210;SDS011;65003;49.518;11.280;2023-04-21T09:45:08;5.80;;;5.40;;
76210;SDS011;65003;49.518;11.280;2023-04-21T09:47:39;5.27;;;4.87;;
76210;SDS011;65003;49.518;11.280;2023-04-21T09:50:06;5.80;;;5.30;;
76210;SDS011;65003;49.518;11.280;2023-04-21T09:52:32;7.58;;;5.42;;
76210;SDS011;65003;49.518;11.280;2023-04-21T09:54:59;5.90;;;5.42;;
76210;SDS011;65003;49.518;11.280;2023-04-21T09:57:25;5.78;;;4.87;;
76210;SDS011;65003;49.518;11.280;2023-04-21T09:59:53;5.67;;;5.08;;
76210;SDS011;65003;49.518;11.280;2023-04-21T10:02:19;4.95;;;4.55;;
76210;SDS011;65003;49.518;11.280;2023-04-21T10:04:46;5.80;;;4.92;;
76210;SDS011;65003;49.518;11.280;2023-04-21T10:07:13;5.28;;;4.80;;
76210;SDS011;65003;49.518;11.280;2023-04-21T10:09:42;5.10;;;4.62;;
76210;SDS011;65003;49.518;11.280;2023-04-21T10:12:07;5.22;;;4.83;;
76210;SDS011;65003;49.518;11.280;2023-04-21T10:14:33;5.33;;;4.93;;
76210;SDS011;65003;49.518;11.280;2023-04-21T10:17:02;4.53;;;4.17;;
76210;SDS011;65003;49.518;11.280;2023-04-21T10:19:28;5.22;;;4.75;;
76210;SDS011;65003;49.518;11.280;2023-04-21T10:21:55;5.75;;;4.78;;
76210;SDS011;65003;49.518;11.280;2023-04-21T10:24:21;5.10;;;4.62;;
76210;SDS011;65003;49.518;11.280;2023-04-21T10:26:49;4.70;;;4.30;;
76210;SDS011;65003;49.518;11.280;2023-04-21T10:29:16;5.00;;;4.50;;
76210;SDS011;65003;49.518;11.280;2023-04-21T10:31:50;4.83;;;4.42;;
76210;SDS011;65003;49.518;11.280;2023-04-21T10:34:18;4.72;;;4.30;;
76210;SDS011;65003;49.518;11.280;2023-04-21T10:39:36;4.50;;;4.10;;
76210;SDS011;65003;49.518;11.280;2023-04-21T10:44:50;4.80;;;4.25;;
76210;SDS011;65003;49.518;11.280;2023-04-21T10:47:24;4.37;;;4.08;;
76210;SDS011;65003;49.518;11.280;2023-04-21T10:49:50;4.35;;;4.00;;
76210;SDS011;65003;49.518;11.280;2023-04-21T10:52:17;4.85;;;4.35;;
76210;SDS011;65003;49.518;11.280;2023-04-21T10:57:35;5.37;;;4.97;;
76210;SDS011;65003;49.518;11.280;2023-04-21T11:00:01;4.72;;;4.33;;
76210;SDS011;65003;49.518;11.280;2023-04-21T11:02:28;4.73;;;4.23;;
76210;SDS011;65003;49.518;11.280;2023-04-21T11:04:54;4.33;;;3.93;;
76210;SDS011;65003;49.518;11.280;2023-04-21T11:07:22;4.30;;;3.90;;
76210;SDS011;65003;49.518;11.280;2023-04-21T11:10:04;4.77;;;4.27;;
76210;SDS011;65003;49.518;11.280;2023-04-21T11:12:31;6.07;;;4.30;;
76210;SDS011;65003;49.518;11.280;2023-04-21T11:14:57;4.63;;;3.90;;
76210;SDS011;65003;49.518;11.280;2023-04-21T11:17:23;4.70;;;4.27;;
76210;SDS011;65003;49.518;11.280;2023-04-21T11:19:51;5.10;;;3.53;;
76210;SDS011;65003;49.518;11.280;2023-04-21T11:22:18;4.13;;;3.73;;
76210;SDS011;65003;49.518;11.280;2023-04-21T11:24:44;3.93;;;3.53;;
76210;SDS011;65003;49.518;11.280;2023-04-21T11:27:11;5.90;;;4.33;;
76210;SDS011;65003;49.518;11.280;2023-04-21T11:29:37;4.67;;;4.10;;
76210;SDS011;65003;49.518;11.280;2023-04-21T11:32:05;4.73;;;4.20;;
76210;SDS011;65003;49.518;11.280;2023-04-21T11:34:31;4.10;;;3.70;;
76210;SDS011;65003;49.518;11.280;2023-04-21T11:36:57;4.97;;;3.70;;
76210;SDS011;65003;49.518;11.280;2023-04-21T11:39:24;5.00;;;3.73;;
76210;SDS011;65003;49.518;11.280;2023-04-21T11:41:51;3.90;;;3.33;;
76210;SDS011;65003;49.518;11.280;2023-04-21T11:46:57;5.10;;;3.50;;
76210;SDS011;65003;49.518;11.280;2023-04-21T11:49:24;4.80;;;3.30;;
76210;SDS011;65003;49.518;11.280;2023-04-21T11:51:50;4.30;;;3.37;;
76210;SDS011;65003;49.518;11.280;2023-04-21T11:54:17;5.57;;;3.40;;
76210;SDS011;65003;49.518;11.280;2023-04-21T11:56:45;5.00;;;3.33;;
76210;SDS011;65003;49.518;11.280;2023-04-21T11:59:13;4.13;;;3.23;;
76210;SDS011;65003;49.518;11.280;2023-04-21T12:01:41;3.57;;;3.20;;
76210;SDS011;65003;49.518;11.280;2023-04-21T12:04:12;4.00;;;3.60;;
76210;SDS011;65003;49.518;11.280;2023-04-21T12:06:36;4.63;;;3.40;;
76210;SDS011;65003;49.518;11.280;2023-04-21T12:09:01;4.00;;;3.13;;
76210;SDS011;65003;49.518;11.280;2023-04-21T12:11:28;3.47;;;3.17;;
76210;SDS011;65003;49.518;11.280;2023-04-21T12:13:56;4.87;;;3.13;;
76210;SDS011;65003;49.518;11.280;2023-04-21T12:16:22;5.03;;;3.10;;
76210;SDS011;65003;49.518;11.280;2023-04-21T12:18:49;4.37;;;2.83;;
76210;SDS011;65003;49.518;11.280;2023-04-21T12:21:17;4.27;;;3.23;;
76210;SDS011;65003;49.518;11.280;2023-04-21T12:23:43;4.50;;;3.33;;
76210;SDS011;65003;49.518;11.280;2023-04-21T12:26:10;3.97;;;3.40;;
76210;SDS011;65003;49.518;11.280;2023-04-21T12:28:37;3.40;;;2.83;;
76210;SDS011;65003;49.518;11.280;2023-04-21T12:31:04;3.30;;;3.00;;
76210;SDS011;65003;49.518;11.280;2023-04-21T12:33:30;7.40;;;5.60;;
76210;SDS011;65003;49.518;11.280;2023-04-21T12:35:56;7.67;;;5.73;;
76210;SDS011;65003;49.518;11.280;2023-04-21T12:38:23;3.80;;;3.40;;
76210;SDS011;65003;49.518;11.280;2023-04-21T12:40:49;3.50;;;3.20;;
76210;SDS011;65003;49.518;11.280;2023-04-21T12:43:16;3.60;;;3.30;;
76210;SDS011;65003;49.518;11.280;2023-04-21T12:45:43;3.50;;;3.20;;
76210;SDS011;65003;49.518;11.280;2023-04-21T12:48:09;4.00;;;3.37;;
76210;SDS011;65003;49.518;11.280;2023-04-21T12:50:36;6.83;;;3.63;;
76210;SDS011;65003;49.518;11.280;2023-04-21T12:53:02;4.00;;;2.93;;
76210;SDS011;65003;49.518;11.280;2023-04-21T12:55:29;4.30;;;3.43;;
76210;SDS011;65003;49.518;11.280;2023-04-21T12:57:56;4.23;;;3.13;;
76210;SDS011;65003;49.518;11.280;2023-04-21T13:00:22;5.53;;;3.33;;
76210;SDS011;65003;49.518;11.280;2023-04-21T13:02:49;4.00;;;3.40;;
76210;SDS011;65003;49.518;11.280;2023-04-21T13:05:16;4.17;;;3.03;;
76210;SDS011;65003;49.518;11.280;2023-04-21T13:07:43;6.27;;;3.63;;
76210;SDS011;65003;49.518;11.280;2023-04-21T13:10:09;3.50;;;3.20;;
76210;SDS011;65003;49.518;11.280;2023-04-21T13:12:36;4.90;;;3.00;;
76210;SDS011;65003;49.518;11.280;2023-04-21T13:15:03;4.60;;;3.30;;
76210;SDS011;65003;49.518;11.280;2023-04-21T13:17:30;4.87;;;3.47;;
76210;SDS011;65003;49.518;11.280;2023-04-21T13:19:56;4.00;;;3.10;;
76210;SDS011;65003;49.518;11.280;2023-04-21T13:22:23;5.43;;;4.10;;
76210;SDS011;65003;49.518;11.280;2023-04-21T13:24:50;4.33;;;3.20;;
76210;SDS011;65003;49.518;11.280;2023-04-21T13:27:16;3.33;;;2.77;;
76210;SDS011;65003;49.518;11.280;2023-04-21T13:29:43;5.13;;;2.97;;
76210;SDS011;65003;49.518;11.280;2023-04-21T13:32:09;2.63;;;2.40;;
76210;SDS011;65003;49.518;11.280;2023-04-21T13:34:37;3.57;;;2.30;;
76210;SDS011;65003;49.518;11.280;2023-04-21T13:37:03;2.97;;;2.47;;
76210;SDS011;65003;49.518;11.280;2023-04-21T13:39:30;3.20;;;2.37;;
76210;SDS011;65003;49.518;11.280;2023-04-21T13:41:57;2.20;;;2.00;;
76210;SDS011;65003;49.518;11.280;2023-04-21T13:44:23;5.40;;;2.27;;
76210;SDS011;65003;49.518;11.280;2023-04-21T13:46:50;2.23;;;1.93;;
76210;SDS011;65003;49.518;11.280;2023-04-21T13:49:16;3.60;;;2.80;;
76210;SDS011;65003;49.518;11.280;2023-04-21T13:51:43;2.83;;;2.40;;
76210;SDS011;65003;49.518;11.280;2023-04-21T13:54:09;2.90;;;2.50;;
76210;SDS011;65003;49.518;11.280;2023-04-21T13:56:36;2.83;;;2.00;;
76210;SDS011;65003;49.518;11.280;2023-04-21T13:59:05;2.90;;;2.60;;
76210;SDS011;65003;49.518;11.280;2023-04-21T14:01:32;3.43;;;2.60;;
76210;SDS011;65003;49.518;11.280;2023-04-21T14:03:58;3.10;;;2.80;;
76210;SDS011;65003;49.518;11.280;2023-04-21T14:06:25;2.90;;;2.50;;
76210;SDS011;65003;49.518;11.280;2023-04-21T14:08:52;3.23;;;2.80;;
76210;SDS011;65003;49.518;11.280;2023-04-21T14:11:18;3.97;;;2.80;;
76210;SDS011;65003;49.518;11.280;2023-04-21T14:13:45;3.07;;;2.77;;
76210;SDS011;65003;49.518;11.280;2023-04-21T14:16:11;3.37;;;2.77;;
76210;SDS011;65003;49.518;11.280;2023-04-21T14:18:38;3.20;;;2.70;;
76210;SDS011;65003;49.518;11.280;2023-04-21T14:21:05;5.13;;;2.90;;
76210;SDS011;65003;49.518;11.280;2023-04-21T14:23:31;3.20;;;2.90;;
76210;SDS011;65003;49.518;11.280;2023-04-21T14:25:58;5.33;;;2.90;;
76210;SDS011;65003;49.518;11.280;2023-04-21T14:28:25;4.73;;;3.20;;
76210;SDS011;65003;49.518;11.280;2023-04-21T14:30:51;4.00;;;2.60;;
76210;SDS011;65003;49.518;11.280;2023-04-21T14:33:18;5.73;;;2.70;;